sensor_id;sensor_type;location;lat;lon;timestamp;temperature;humidity
66962;HTU21D;53897;51.126;5.868;2023-07-29T00:02:09;26.65;52.14
66962;HTU21D;53897;51.126;5.868;2023-07-29T00:04:34;26.64;52.13
66962;HTU21D;53897;51.126;5.868;2023-07-29T00:07:00;26.64;52.13
66962;HTU21D;53897;51.126;5.868;2023-07-29T00:09:25;26.64;52.13
66962;HTU21D;53897;51.126;5.868;2023-07-29T00:11:51;26.62;52.11
66962;HTU21D;53897;51.126;5.868;2023-07-29T00:14:17;26.63;52.07
66962;HTU21D;53897;51.126;5.868;2023-07-29T00:16:42;26.62;52.09
66962;HTU21D;53897;51.126;5.868;2023-07-29T00:19:08;26.63;52.09
66962;HTU21D;53897;51.126;5.868;2023-07-29T00:21:34;26.62;52.09
66962;HTU21D;53897;51.126;5.868;2023-07-29T00:24:00;26.62;52.10
66962;HTU21D;53897;51.126;5.868;2023-07-29T00:26:27;26.61;52.10
66962;HTU21D;53897;51.126;5.868;2023-07-29T00:28:55;26.61;52.08
66962;HTU21D;53897;51.126;5.868;2023-07-29T00:31:21;26.60;52.08
66962;HTU21D;53897;51.126;5.868;2023-07-29T00:33:47;26.58;52.08
66962;HTU21D;53897;51.126;5.868;2023-07-29T00:36:14;26.60;52.07
66962;HTU21D;53897;51.126;5.868;2023-07-29T00:38:39;26.58;52.07
66962;HTU21D;53897;51.126;5.868;2023-07-29T00:41:05;26.58;52.07
66962;HTU21D;53897;51.126;5.868;2023-07-29T00:43:32;26.57;52.06
66962;HTU21D;53897;51.126;5.868;2023-07-29T00:45:59;26.57;52.07
66962;HTU21D;53897;51.126;5.868;2023-07-29T00:48:26;26.56;52.05
66962;HTU21D;53897;51.126;5.868;2023-07-29T00:50:53;26.56;52.04
66962;HTU21D;53897;51.126;5.868;2023-07-29T00:53:19;26.55;52.03
66962;HTU21D;53897;51.126;5.868;2023-07-29T00:55:45;26.56;52.04
66962;HTU21D;53897;51.126;5.868;2023-07-29T00:58:12;26.54;52.03
66962;HTU21D;53897;51.126;5.868;2023-07-29T01:00:37;26.54;52.01
66962;HTU21D;53897;51.126;5.868;2023-07-29T01:03:04;26.54;52.00
66962;HTU21D;53897;51.126;5.868;2023-07-29T01:05:40;26.54;52.00
66962;HTU21D;53897;51.126;5.868;2023-07-29T01:08:22;26.53;51.98
66962;HTU21D;53897;51.126;5.868;2023-07-29T01:14:17;26.52;51.99
66962;HTU21D;53897;51.126;5.868;2023-07-29T01:16:53;26.52;52.00
66962;HTU21D;53897;51.126;5.868;2023-07-29T01:22:07;26.51;52.00
66962;HTU21D;53897;51.126;5.868;2023-07-29T01:24:33;26.51;51.99
66962;HTU21D;53897;51.126;5.868;2023-07-29T01:26:59;26.50;52.01
66962;HTU21D;53897;51.126;5.868;2023-07-29T01:29:27;26.50;52.03
66962;HTU21D;53897;51.126;5.868;2023-07-29T01:31:59;26.50;52.07
66962;HTU21D;53897;51.126;5.868;2023-07-29T01:34:35;26.50;52.17
66962;HTU21D;53897;51.126;5.868;2023-07-29T01:37:09;26.49;52.29
66962;HTU21D;53897;51.126;5.868;2023-07-29T01:39:38;26.48;52.33
66962;HTU21D;53897;51.126;5.868;2023-07-29T01:42:06;26.49;52.40
66962;HTU21D;53897;51.126;5.868;2023-07-29T01:44:33;26.50;52.43
66962;HTU21D;53897;51.126;5.868;2023-07-29T01:47:00;26.49;52.49
66962;HTU21D;53897;51.126;5.868;2023-07-29T01:49:26;26.47;52.49
66962;HTU21D;53897;51.126;5.868;2023-07-29T01:51:51;26.47;52.47
66962;HTU21D;53897;51.126;5.868;2023-07-29T01:54:17;26.47;52.42
66962;HTU21D;53897;51.126;5.868;2023-07-29T01:56:43;26.46;52.46
66962;HTU21D;53897;51.126;5.868;2023-07-29T01:59:08;26.46;52.44
66962;HTU21D;53897;51.126;5.868;2023-07-29T02:01:34;26.45;52.36
66962;HTU21D;53897;51.126;5.868;2023-07-29T02:04:00;26.46;52.22
66962;HTU21D;53897;51.126;5.868;2023-07-29T02:06:25;26.45;52.17
66962;HTU21D;53897;51.126;5.868;2023-07-29T02:08:53;26.43;52.22
66962;HTU21D;53897;51.126;5.868;2023-07-29T02:11:19;26.43;52.27
66962;HTU21D;53897;51.126;5.868;2023-07-29T02:13:46;26.45;52.32
66962;HTU21D;53897;51.126;5.868;2023-07-29T02:16:11;26.45;52.32
66962;HTU21D;53897;51.126;5.868;2023-07-29T02:18:37;26.43;52.35
66962;HTU21D;53897;51.126;5.868;2023-07-29T02:21:03;26.42;52.38
66962;HTU21D;53897;51.126;5.868;2023-07-29T02:23:28;26.42;52.40
66962;HTU21D;53897;51.126;5.868;2023-07-29T02:25:54;26.41;52.40
66962;HTU21D;53897;51.126;5.868;2023-07-29T02:28:20;26.41;52.38
66962;HTU21D;53897;51.126;5.868;2023-07-29T02:30:46;26.41;52.44
66962;HTU21D;53897;51.126;5.868;2023-07-29T02:33:12;26.40;52.43
66962;HTU21D;53897;51.126;5.868;2023-07-29T02:35:38;26.40;52.41
66962;HTU21D;53897;51.126;5.868;2023-07-29T02:38:04;26.39;52.37
66962;HTU21D;53897;51.126;5.868;2023-07-29T02:40:29;26.39;52.36
66962;HTU21D;53897;51.126;5.868;2023-07-29T02:42:56;26.39;52.33
66962;HTU21D;53897;51.126;5.868;2023-07-29T02:45:21;26.39;52.30
66962;HTU21D;53897;51.126;5.868;2023-07-29T02:47:47;26.39;52.33
66962;HTU21D;53897;51.126;5.868;2023-07-29T02:50:12;26.38;52.34
66962;HTU21D;53897;51.126;5.868;2023-07-29T02:52:38;26.38;52.29
66962;HTU21D;53897;51.126;5.868;2023-07-29T02:55:04;26.38;52.25
66962;HTU21D;53897;51.126;5.868;2023-07-29T02:57:30;26.38;52.23
66962;HTU21D;53897;51.126;5.868;2023-07-29T02:59:56;26.37;52.24
66962;HTU21D;53897;51.126;5.868;2023-07-29T03:02:22;26.37;52.22
66962;HTU21D;53897;51.126;5.868;2023-07-29T03:04:48;26.36;52.18
66962;HTU21D;53897;51.126;5.868;2023-07-29T03:07:14;26.35;52.16
66962;HTU21D;53897;51.126;5.868;2023-07-29T03:09:40;26.35;52.17
66962;HTU21D;53897;51.126;5.868;2023-07-29T03:12:08;26.36;52.16
66962;HTU21D;53897;51.126;5.868;2023-07-29T03:14:34;26.35;52.23
66962;HTU21D;53897;51.126;5.868;2023-07-29T03:17:02;26.34;52.20
66962;HTU21D;53897;51.126;5.868;2023-07-29T03:19:29;26.35;52.25
66962;HTU21D;53897;51.126;5.868;2023-07-29T03:21:55;26.34;52.29
66962;HTU21D;53897;51.126;5.868;2023-07-29T03:24:21;26.35;52.24
66962;HTU21D;53897;51.126;5.868;2023-07-29T03:26:47;26.34;52.23
66962;HTU21D;53897;51.126;5.868;2023-07-29T03:29:12;26.34;52.21
66962;HTU21D;53897;51.126;5.868;2023-07-29T03:31:38;26.34;52.25
66962;HTU21D;53897;51.126;5.868;2023-07-29T03:34:04;26.33;52.22
66962;HTU21D;53897;51.126;5.868;2023-07-29T03:36:30;26.33;52.18
66962;HTU21D;53897;51.126;5.868;2023-07-29T03:38:55;26.33;52.14
66962;HTU21D;53897;51.126;5.868;2023-07-29T03:41:21;26.31;52.15
66962;HTU21D;53897;51.126;5.868;2023-07-29T03:43:47;26.32;52.16
66962;HTU21D;53897;51.126;5.868;2023-07-29T03:46:12;26.31;52.15
66962;HTU21D;53897;51.126;5.868;2023-07-29T03:48:40;26.31;52.14
66962;HTU21D;53897;51.126;5.868;2023-07-29T03:51:05;26.30;52.16
66962;HTU21D;53897;51.126;5.868;2023-07-29T03:53:31;26.30;52.17
66962;HTU21D;53897;51.126;5.868;2023-07-29T03:55:57;26.30;52.11
66962;HTU21D;53897;51.126;5.868;2023-07-29T03:58:22;26.30;52.12
66962;HTU21D;53897;51.126;5.868;2023-07-29T04:00:48;26.30;52.04
66962;HTU21D;53897;51.126;5.868;2023-07-29T04:03:14;26.28;51.96
66962;HTU21D;53897;51.126;5.868;2023-07-29T04:05:40;26.27;51.99
66962;HTU21D;53897;51.126;5.868;2023-07-29T04:08:05;26.26;52.01
66962;HTU21D;53897;51.126;5.868;2023-07-29T04:10:31;26.24;52.04
66962;HTU21D;53897;51.126;5.868;2023-07-29T04:12:58;26.24;52.10
66962;HTU21D;53897;51.126;5.868;2023-07-29T04:15:23;26.22;52.10
66962;HTU21D;53897;51.126;5.868;2023-07-29T04:17:49;26.21;52.13
66962;HTU21D;53897;51.126;5.868;2023-07-29T04:20:15;26.22;52.11
66962;HTU21D;53897;51.126;5.868;2023-07-29T04:22:40;26.22;52.11
66962;HTU21D;53897;51.126;5.868;2023-07-29T04:25:06;26.23;52.11
66962;HTU21D;53897;51.126;5.868;2023-07-29T04:27:32;26.23;52.08
66962;HTU21D;53897;51.126;5.868;2023-07-29T04:29:58;26.25;52.08
66962;HTU21D;53897;51.126;5.868;2023-07-29T04:32:23;26.23;52.09
66962;HTU21D;53897;51.126;5.868;2023-07-29T04:34:49;26.23;52.10
66962;HTU21D;53897;51.126;5.868;2023-07-29T04:37:15;26.23;52.12
66962;HTU21D;53897;51.126;5.868;2023-07-29T04:39:40;26.24;52.12
66962;HTU21D;53897;51.126;5.868;2023-07-29T04:42:06;26.24;52.14
66962;HTU21D;53897;51.126;5.868;2023-07-29T04:44:32;26.23;52.14
66962;HTU21D;53897;51.126;5.868;2023-07-29T04:46:57;26.22;52.17
66962;HTU21D;53897;51.126;5.868;2023-07-29T04:49:23;26.20;52.25
66962;HTU21D;53897;51.126;5.868;2023-07-29T04:51:49;26.19;52.32
66962;HTU21D;53897;51.126;5.868;2023-07-29T04:54:15;26.17;52.37
66962;HTU21D;53897;51.126;5.868;2023-07-29T04:56:40;26.15;52.43
66962;HTU21D;53897;51.126;5.868;2023-07-29T04:59:07;26.11;52.49
66962;HTU21D;53897;51.126;5.868;2023-07-29T05:01:34;26.11;52.51
66962;HTU21D;53897;51.126;5.868;2023-07-29T05:04:00;26.09;52.56
66962;HTU21D;53897;51.126;5.868;2023-07-29T05:06:25;26.08;52.59
66962;HTU21D;53897;51.126;5.868;2023-07-29T05:08:51;26.09;52.59
66962;HTU21D;53897;51.126;5.868;2023-07-29T05:11:17;26.10;52.57
66962;HTU21D;53897;51.126;5.868;2023-07-29T05:13:43;26.08;52.60
66962;HTU21D;53897;51.126;5.868;2023-07-29T05:16:10;26.09;52.61
66962;HTU21D;53897;51.126;5.868;2023-07-29T05:18:36;26.10;52.55
66962;HTU21D;53897;51.126;5.868;2023-07-29T05:21:02;26.12;52.51
66962;HTU21D;53897;51.126;5.868;2023-07-29T05:23:27;26.11;52.53
66962;HTU21D;53897;51.126;5.868;2023-07-29T05:25:53;26.09;52.56
66962;HTU21D;53897;51.126;5.868;2023-07-29T05:28:19;26.08;52.61
66962;HTU21D;53897;51.126;5.868;2023-07-29T05:30:45;26.06;52.65
66962;HTU21D;53897;51.126;5.868;2023-07-29T05:33:10;26.06;52.67
66962;HTU21D;53897;51.126;5.868;2023-07-29T05:35:38;26.07;52.69
66962;HTU21D;53897;51.126;5.868;2023-07-29T05:38:03;26.06;52.71
66962;HTU21D;53897;51.126;5.868;2023-07-29T05:40:31;26.06;52.70
66962;HTU21D;53897;51.126;5.868;2023-07-29T05:42:57;26.07;52.66
66962;HTU21D;53897;51.126;5.868;2023-07-29T05:45:22;26.08;52.64
66962;HTU21D;53897;51.126;5.868;2023-07-29T05:47:48;26.12;52.62
66962;HTU21D;53897;51.126;5.868;2023-07-29T05:50:15;26.12;52.61
66962;HTU21D;53897;51.126;5.868;2023-07-29T05:52:41;26.15;52.55
66962;HTU21D;53897;51.126;5.868;2023-07-29T05:55:07;26.15;52.48
66962;HTU21D;53897;51.126;5.868;2023-07-29T05:57:33;26.18;52.51
66962;HTU21D;53897;51.126;5.868;2023-07-29T05:59:58;26.19;52.47
66962;HTU21D;53897;51.126;5.868;2023-07-29T06:02:24;26.18;52.43
66962;HTU21D;53897;51.126;5.868;2023-07-29T06:04:51;26.20;52.36
66962;HTU21D;53897;51.126;5.868;2023-07-29T06:07:17;26.20;52.40
66962;HTU21D;53897;51.126;5.868;2023-07-29T06:09:43;26.20;52.55
66962;HTU21D;53897;51.126;5.868;2023-07-29T06:12:09;26.19;52.62
66962;HTU21D;53897;51.126;5.868;2023-07-29T06:14:34;26.20;52.70
66962;HTU21D;53897;51.126;5.868;2023-07-29T06:17:00;26.19;52.74
66962;HTU21D;53897;51.126;5.868;2023-07-29T06:19:26;26.19;52.72
66962;HTU21D;53897;51.126;5.868;2023-07-29T06:21:55;26.21;52.72
66962;HTU21D;53897;51.126;5.868;2023-07-29T06:24:21;26.21;52.71
66962;HTU21D;53897;51.126;5.868;2023-07-29T06:26:46;26.21;52.71
66962;HTU21D;53897;51.126;5.868;2023-07-29T06:29:12;26.22;52.65
66962;HTU21D;53897;51.126;5.868;2023-07-29T06:31:38;26.21;52.65
66962;HTU21D;53897;51.126;5.868;2023-07-29T06:34:03;26.22;52.88
66962;HTU21D;53897;51.126;5.868;2023-07-29T06:36:29;26.20;53.33
66962;HTU21D;53897;51.126;5.868;2023-07-29T06:38:54;26.17;53.73
66962;HTU21D;53897;51.126;5.868;2023-07-29T06:41:20;26.18;53.80
66962;HTU21D;53897;51.126;5.868;2023-07-29T06:43:46;26.19;53.93
66962;HTU21D;53897;51.126;5.868;2023-07-29T06:46:12;26.20;53.83
66962;HTU21D;53897;51.126;5.868;2023-07-29T06:48:38;26.22;53.78
66962;HTU21D;53897;51.126;5.868;2023-07-29T06:51:03;26.23;53.59
66962;HTU21D;53897;51.126;5.868;2023-07-29T06:53:29;26.24;53.46
66962;HTU21D;53897;51.126;5.868;2023-07-29T06:55:55;26.26;53.48
66962;HTU21D;53897;51.126;5.868;2023-07-29T06:58:21;26.26;53.42
66962;HTU21D;53897;51.126;5.868;2023-07-29T07:00:47;26.28;53.30
66962;HTU21D;53897;51.126;5.868;2023-07-29T07:03:13;26.28;53.18
66962;HTU21D;53897;51.126;5.868;2023-07-29T07:05:38;26.30;53.23
66962;HTU21D;53897;51.126;5.868;2023-07-29T07:08:04;26.32;53.19
66962;HTU21D;53897;51.126;5.868;2023-07-29T07:10:30;26.33;53.14
66962;HTU21D;53897;51.126;5.868;2023-07-29T07:12:55;26.34;53.27
66962;HTU21D;53897;51.126;5.868;2023-07-29T07:15:21;26.31;53.38
66962;HTU21D;53897;51.126;5.868;2023-07-29T07:17:47;26.31;53.45
66962;HTU21D;53897;51.126;5.868;2023-07-29T07:20:12;26.31;53.47
66962;HTU21D;53897;51.126;5.868;2023-07-29T07:22:38;26.31;53.38
66962;HTU21D;53897;51.126;5.868;2023-07-29T07:25:04;26.32;53.30
66962;HTU21D;53897;51.126;5.868;2023-07-29T07:27:30;26.32;53.20
66962;HTU21D;53897;51.126;5.868;2023-07-29T07:29:56;26.33;53.17
66962;HTU21D;53897;51.126;5.868;2023-07-29T07:32:22;26.34;53.13
66962;HTU21D;53897;51.126;5.868;2023-07-29T07:34:47;26.35;53.01
66962;HTU21D;53897;51.126;5.868;2023-07-29T07:37:13;26.36;52.99
66962;HTU21D;53897;51.126;5.868;2023-07-29T07:39:38;26.37;52.99
66962;HTU21D;53897;51.126;5.868;2023-07-29T07:42:04;26.37;52.90
66962;HTU21D;53897;51.126;5.868;2023-07-29T07:44:31;26.38;52.88
66962;HTU21D;53897;51.126;5.868;2023-07-29T07:46:56;26.38;52.91
66962;HTU21D;53897;51.126;5.868;2023-07-29T07:49:22;26.39;52.99
66962;HTU21D;53897;51.126;5.868;2023-07-29T07:51:48;26.40;52.97
66962;HTU21D;53897;51.126;5.868;2023-07-29T07:54:14;26.39;52.98
66962;HTU21D;53897;51.126;5.868;2023-07-29T07:56:40;26.39;52.97
66962;HTU21D;53897;51.126;5.868;2023-07-29T07:59:05;26.42;52.85
66962;HTU21D;53897;51.126;5.868;2023-07-29T08:01:35;26.42;52.81
66962;HTU21D;53897;51.126;5.868;2023-07-29T08:04:02;26.43;52.82
66962;HTU21D;53897;51.126;5.868;2023-07-29T08:06:28;26.46;52.72
66962;HTU21D;53897;51.126;5.868;2023-07-29T08:08:53;26.48;52.67
66962;HTU21D;53897;51.126;5.868;2023-07-29T08:11:19;26.49;52.61
66962;HTU21D;53897;51.126;5.868;2023-07-29T08:13:45;26.49;52.53
66962;HTU21D;53897;51.126;5.868;2023-07-29T08:16:10;26.51;52.43
66962;HTU21D;53897;51.126;5.868;2023-07-29T08:18:36;26.52;52.38
66962;HTU21D;53897;51.126;5.868;2023-07-29T08:21:02;26.52;52.30
66962;HTU21D;53897;51.126;5.868;2023-07-29T08:23:35;26.53;52.27
66962;HTU21D;53897;51.126;5.868;2023-07-29T08:26:04;26.52;52.29
66962;HTU21D;53897;51.126;5.868;2023-07-29T08:28:36;26.53;52.31
66962;HTU21D;53897;51.126;5.868;2023-07-29T08:31:02;26.54;52.34
66962;HTU21D;53897;51.126;5.868;2023-07-29T08:33:28;26.55;52.41
66962;HTU21D;53897;51.126;5.868;2023-07-29T08:35:54;26.56;52.49
66962;HTU21D;53897;51.126;5.868;2023-07-29T08:38:21;26.56;52.52
66962;HTU21D;53897;51.126;5.868;2023-07-29T08:43:41;26.57;52.88
66962;HTU21D;53897;51.126;5.868;2023-07-29T08:46:09;26.57;52.80
66962;HTU21D;53897;51.126;5.868;2023-07-29T08:48:42;26.60;52.82
66962;HTU21D;53897;51.126;5.868;2023-07-29T08:51:11;26.61;52.82
66962;HTU21D;53897;51.126;5.868;2023-07-29T08:53:39;26.62;52.81
66962;HTU21D;53897;51.126;5.868;2023-07-29T08:56:06;26.62;52.86
66962;HTU21D;53897;51.126;5.868;2023-07-29T08:58:32;26.63;52.85
66962;HTU21D;53897;51.126;5.868;2023-07-29T09:00:58;26.63;52.82
66962;HTU21D;53897;51.126;5.868;2023-07-29T09:03:24;26.64;52.80
66962;HTU21D;53897;51.126;5.868;2023-07-29T09:05:50;26.64;52.78
66962;HTU21D;53897;51.126;5.868;2023-07-29T09:08:16;26.64;52.68
66962;HTU21D;53897;51.126;5.868;2023-07-29T09:10:42;26.62;52.56
66962;HTU21D;53897;51.126;5.868;2023-07-29T09:13:08;26.64;52.53
66962;HTU21D;53897;51.126;5.868;2023-07-29T09:15:36;26.63;52.47
66962;HTU21D;53897;51.126;5.868;2023-07-29T09:18:15;26.65;52.41
66962;HTU21D;53897;51.126;5.868;2023-07-29T09:20:41;26.64;52.30
66962;HTU21D;53897;51.126;5.868;2023-07-29T09:23:09;26.64;52.22
66962;HTU21D;53897;51.126;5.868;2023-07-29T09:25:39;26.65;52.16
66962;HTU21D;53897;51.126;5.868;2023-07-29T09:28:10;26.65;52.11
66962;HTU21D;53897;51.126;5.868;2023-07-29T09:30:40;26.66;52.06
66962;HTU21D;53897;51.126;5.868;2023-07-29T09:33:07;26.67;51.95
66962;HTU21D;53897;51.126;5.868;2023-07-29T09:35:35;26.67;51.89
66962;HTU21D;53897;51.126;5.868;2023-07-29T09:38:02;26.67;51.82
66962;HTU21D;53897;51.126;5.868;2023-07-29T09:40:38;26.67;51.73
66962;HTU21D;53897;51.126;5.868;2023-07-29T09:43:05;26.69;51.65
66962;HTU21D;53897;51.126;5.868;2023-07-29T09:45:34;26.70;51.62
66962;HTU21D;53897;51.126;5.868;2023-07-29T09:48:01;26.70;51.54
66962;HTU21D;53897;51.126;5.868;2023-07-29T09:50:28;26.71;51.53
66962;HTU21D;53897;51.126;5.868;2023-07-29T09:52:56;26.71;51.53
66962;HTU21D;53897;51.126;5.868;2023-07-29T09:55:26;26.72;51.44
66962;HTU21D;53897;51.126;5.868;2023-07-29T09:57:59;26.71;51.38
66962;HTU21D;53897;51.126;5.868;2023-07-29T10:00:31;26.72;51.40
66962;HTU21D;53897;51.126;5.868;2023-07-29T10:02:58;26.72;51.38
66962;HTU21D;53897;51.126;5.868;2023-07-29T10:05:28;26.71;51.40
66962;HTU21D;53897;51.126;5.868;2023-07-29T10:07:55;26.72;51.35
66962;HTU21D;53897;51.126;5.868;2023-07-29T10:10:21;26.72;51.33
66962;HTU21D;53897;51.126;5.868;2023-07-29T10:12:47;26.73;51.26
66962;HTU21D;53897;51.126;5.868;2023-07-29T10:15:13;26.75;51.16
66962;HTU21D;53897;51.126;5.868;2023-07-29T10:17:42;26.73;51.14
66962;HTU21D;53897;51.126;5.868;2023-07-29T10:20:10;26.75;51.11
66962;HTU21D;53897;51.126;5.868;2023-07-29T10:22:38;26.73;51.06
66962;HTU21D;53897;51.126;5.868;2023-07-29T10:25:08;26.75;51.07
66962;HTU21D;53897;51.126;5.868;2023-07-29T10:30:12;26.76;51.14
66962;HTU21D;53897;51.126;5.868;2023-07-29T10:32:42;26.77;51.18
66962;HTU21D;53897;51.126;5.868;2023-07-29T10:35:09;26.77;51.24
66962;HTU21D;53897;51.126;5.868;2023-07-29T10:37:36;26.78;51.29
66962;HTU21D;53897;51.126;5.868;2023-07-29T10:40:08;26.80;51.28
66962;HTU21D;53897;51.126;5.868;2023-07-29T10:42:35;26.81;51.38
66962;HTU21D;53897;51.126;5.868;2023-07-29T10:45:17;26.81;51.33
66962;HTU21D;53897;51.126;5.868;2023-07-29T10:47:43;26.81;51.34
66962;HTU21D;53897;51.126;5.868;2023-07-29T10:50:18;26.81;51.33
66962;HTU21D;53897;51.126;5.868;2023-07-29T10:52:49;26.82;51.43
66962;HTU21D;53897;51.126;5.868;2023-07-29T10:55:29;26.82;51.50
66962;HTU21D;53897;51.126;5.868;2023-07-29T10:58:15;26.83;51.53
66962;HTU21D;53897;51.126;5.868;2023-07-29T11:00:43;26.84;51.55
66962;HTU21D;53897;51.126;5.868;2023-07-29T11:03:09;26.84;51.59
66962;HTU21D;53897;51.126;5.868;2023-07-29T11:05:52;26.85;51.58
66962;HTU21D;53897;51.126;5.868;2023-07-29T11:08:29;26.85;51.62
66962;HTU21D;53897;51.126;5.868;2023-07-29T11:13:27;26.87;51.60
66962;HTU21D;53897;51.126;5.868;2023-07-29T11:15:54;26.90;51.52
66962;HTU21D;53897;51.126;5.868;2023-07-29T11:18:22;26.90;51.43
66962;HTU21D;53897;51.126;5.868;2023-07-29T11:20:47;26.90;51.29
66962;HTU21D;53897;51.126;5.868;2023-07-29T11:23:16;26.91;51.25
66962;HTU21D;53897;51.126;5.868;2023-07-29T11:25:42;26.91;51.17
66962;HTU21D;53897;51.126;5.868;2023-07-29T11:28:08;26.92;51.14
66962;HTU21D;53897;51.126;5.868;2023-07-29T11:30:33;26.92;51.10
66962;HTU21D;53897;51.126;5.868;2023-07-29T11:32:59;26.92;51.02
66962;HTU21D;53897;51.126;5.868;2023-07-29T11:35:25;26.92;50.98
66962;HTU21D;53897;51.126;5.868;2023-07-29T11:37:52;26.92;50.89
66962;HTU21D;53897;51.126;5.868;2023-07-29T11:40:20;26.94;50.80
66962;HTU21D;53897;51.126;5.868;2023-07-29T11:42:48;26.94;50.70
66962;HTU21D;53897;51.126;5.868;2023-07-29T11:45:15;26.94;50.68
66962;HTU21D;53897;51.126;5.868;2023-07-29T11:47:41;26.95;50.67
66962;HTU21D;53897;51.126;5.868;2023-07-29T11:50:10;26.95;50.65
66962;HTU21D;53897;51.126;5.868;2023-07-29T11:52:37;26.96;50.66
66962;HTU21D;53897;51.126;5.868;2023-07-29T11:55:04;26.95;50.65
66962;HTU21D;53897;51.126;5.868;2023-07-29T11:57:36;26.95;50.62
66962;HTU21D;53897;51.126;5.868;2023-07-29T12:00:12;26.96;50.71
66962;HTU21D;53897;51.126;5.868;2023-07-29T12:02:40;26.95;50.80
66962;HTU21D;53897;51.126;5.868;2023-07-29T12:05:08;26.97;50.96
66962;HTU21D;53897;51.126;5.868;2023-07-29T12:07:35;26.97;51.04
66962;HTU21D;53897;51.126;5.868;2023-07-29T12:10:02;26.98;51.13
66962;HTU21D;53897;51.126;5.868;2023-07-29T12:12:29;26.98;51.19
66962;HTU21D;53897;51.126;5.868;2023-07-29T12:14:55;26.98;51.21
66962;HTU21D;53897;51.126;5.868;2023-07-29T12:17:20;26.98;51.21
66962;HTU21D;53897;51.126;5.868;2023-07-29T12:19:46;26.98;51.21
66962;HTU21D;53897;51.126;5.868;2023-07-29T12:22:18;26.98;51.21
66962;HTU21D;53897;51.126;5.868;2023-07-29T12:24:45;26.98;51.24
66962;HTU21D;53897;51.126;5.868;2023-07-29T12:27:12;26.97;51.32
66962;HTU21D;53897;51.126;5.868;2023-07-29T12:29:44;26.98;51.31
66962;HTU21D;53897;51.126;5.868;2023-07-29T12:32:12;26.97;51.30
66962;HTU21D;53897;51.126;5.868;2023-07-29T12:34:39;26.99;51.30
66962;HTU21D;53897;51.126;5.868;2023-07-29T12:37:06;26.98;51.32
66962;HTU21D;53897;51.126;5.868;2023-07-29T12:39:34;26.99;51.36
66962;HTU21D;53897;51.126;5.868;2023-07-29T12:42:01;26.99;51.36
66962;HTU21D;53897;51.126;5.868;2023-07-29T12:44:34;26.98;51.35
66962;HTU21D;53897;51.126;5.868;2023-07-29T12:47:04;26.98;51.36
66962;HTU21D;53897;51.126;5.868;2023-07-29T12:49:31;26.99;51.36
66962;HTU21D;53897;51.126;5.868;2023-07-29T12:51:59;26.98;51.37
66962;HTU21D;53897;51.126;5.868;2023-07-29T12:54:26;26.99;51.38
66962;HTU21D;53897;51.126;5.868;2023-07-29T12:56:51;26.98;51.39
66962;HTU21D;53897;51.126;5.868;2023-07-29T12:59:17;26.99;51.35
66962;HTU21D;53897;51.126;5.868;2023-07-29T13:01:43;26.99;51.41
66962;HTU21D;53897;51.126;5.868;2023-07-29T13:04:10;26.99;51.44
66962;HTU21D;53897;51.126;5.868;2023-07-29T13:06:36;26.99;51.43
66962;HTU21D;53897;51.126;5.868;2023-07-29T13:09:02;26.98;51.41
66962;HTU21D;53897;51.126;5.868;2023-07-29T13:11:28;26.99;51.40
66962;HTU21D;53897;51.126;5.868;2023-07-29T13:13:54;26.99;51.41
66962;HTU21D;53897;51.126;5.868;2023-07-29T13:16:20;26.99;51.43
66962;HTU21D;53897;51.126;5.868;2023-07-29T13:18:45;26.98;51.45
66962;HTU21D;53897;51.126;5.868;2023-07-29T13:21:11;26.99;51.48
66962;HTU21D;53897;51.126;5.868;2023-07-29T13:23:36;26.99;51.46
66962;HTU21D;53897;51.126;5.868;2023-07-29T13:26:02;26.98;51.49
66962;HTU21D;53897;51.126;5.868;2023-07-29T13:28:28;26.99;51.62
66962;HTU21D;53897;51.126;5.868;2023-07-29T13:30:54;26.97;51.80
66962;HTU21D;53897;51.126;5.868;2023-07-29T13:33:19;26.98;51.97
66962;HTU21D;53897;51.126;5.868;2023-07-29T13:35:45;26.98;52.11
66962;HTU21D;53897;51.126;5.868;2023-07-29T13:38:11;26.98;52.28
66962;HTU21D;53897;51.126;5.868;2023-07-29T13:40:37;26.98;52.52
66962;HTU21D;53897;51.126;5.868;2023-07-29T13:43:03;26.97;52.63
66962;HTU21D;53897;51.126;5.868;2023-07-29T13:45:28;26.96;52.71
66962;HTU21D;53897;51.126;5.868;2023-07-29T13:47:54;26.96;52.85
66962;HTU21D;53897;51.126;5.868;2023-07-29T13:50:20;26.97;53.01
66962;HTU21D;53897;51.126;5.868;2023-07-29T13:52:45;26.95;53.09
66962;HTU21D;53897;51.126;5.868;2023-07-29T13:55:12;26.95;53.17
66962;HTU21D;53897;51.126;5.868;2023-07-29T13:57:38;26.95;53.26
66962;HTU21D;53897;51.126;5.868;2023-07-29T14:00:06;26.94;53.31
66962;HTU21D;53897;51.126;5.868;2023-07-29T14:02:37;26.94;53.29
66962;HTU21D;53897;51.126;5.868;2023-07-29T14:05:03;26.94;53.40
66962;HTU21D;53897;51.126;5.868;2023-07-29T14:07:29;26.94;53.51
66962;HTU21D;53897;51.126;5.868;2023-07-29T14:09:54;26.92;53.62
66962;HTU21D;53897;51.126;5.868;2023-07-29T14:12:20;26.93;53.64
66962;HTU21D;53897;51.126;5.868;2023-07-29T14:14:45;26.93;53.76
66962;HTU21D;53897;51.126;5.868;2023-07-29T14:17:11;26.94;53.84
66962;HTU21D;53897;51.126;5.868;2023-07-29T14:19:37;26.94;53.84
66962;HTU21D;53897;51.126;5.868;2023-07-29T14:22:03;26.94;53.89
66962;HTU21D;53897;51.126;5.868;2023-07-29T14:24:32;26.95;54.06
66962;HTU21D;53897;51.126;5.868;2023-07-29T14:26:57;26.94;54.04
66962;HTU21D;53897;51.126;5.868;2023-07-29T14:29:23;26.95;54.12
66962;HTU21D;53897;51.126;5.868;2023-07-29T14:31:49;26.95;54.20
66962;HTU21D;53897;51.126;5.868;2023-07-29T14:34:15;26.94;54.30
66962;HTU21D;53897;51.126;5.868;2023-07-29T14:36:40;26.95;54.32
66962;HTU21D;53897;51.126;5.868;2023-07-29T14:39:07;26.95;54.38
66962;HTU21D;53897;51.126;5.868;2023-07-29T14:41:33;26.95;54.43
66962;HTU21D;53897;51.126;5.868;2023-07-29T14:43:59;26.95;54.51
66962;HTU21D;53897;51.126;5.868;2023-07-29T14:46:25;26.95;54.53
66962;HTU21D;53897;51.126;5.868;2023-07-29T14:48:50;26.96;54.52
66962;HTU21D;53897;51.126;5.868;2023-07-29T14:51:16;26.97;54.57
66962;HTU21D;53897;51.126;5.868;2023-07-29T14:53:42;26.97;54.65
66962;HTU21D;53897;51.126;5.868;2023-07-29T14:56:08;26.97;54.76
66962;HTU21D;53897;51.126;5.868;2023-07-29T14:58:34;26.97;54.76
66962;HTU21D;53897;51.126;5.868;2023-07-29T15:00:59;26.99;54.81
66962;HTU21D;53897;51.126;5.868;2023-07-29T15:03:25;26.98;54.78
66962;HTU21D;53897;51.126;5.868;2023-07-29T15:05:51;26.99;54.79
66962;HTU21D;53897;51.126;5.868;2023-07-29T15:08:17;26.99;54.75
66962;HTU21D;53897;51.126;5.868;2023-07-29T15:10:47;27.00;54.88
66962;HTU21D;53897;51.126;5.868;2023-07-29T15:13:13;27.00;54.88
66962;HTU21D;53897;51.126;5.868;2023-07-29T15:15:43;27.00;54.91
66962;HTU21D;53897;51.126;5.868;2023-07-29T15:18:09;27.01;54.92
66962;HTU21D;53897;51.126;5.868;2023-07-29T15:20:35;27.01;54.97
66962;HTU21D;53897;51.126;5.868;2023-07-29T15:23:01;27.01;55.04
66962;HTU21D;53897;51.126;5.868;2023-07-29T15:25:26;27.04;55.03
66962;HTU21D;53897;51.126;5.868;2023-07-29T15:27:52;27.02;55.04